Time;durP1;ratioP1;P1;durP2;ratioP2;P2;SDS_P1;SDS_P2;PMS_P1;PMS_P2;Temp;Humidity;BMP_temperature;BMP_pressure;BME280_temperature;BME280_humidity;BME280_pressure;Samples;Min_cycle;Max_cycle;Signal;HPM_P1;HPM_P2
2022/12/07 00:03:45;;;;;;;39.55;22.95;;;;;;;2.85;90.72;100360.19;10402221;28;20054;-83
2022/12/07 00:08:48;;;;;;;47.47;26.92;;;;;;;2.82;90.77;100347.91;10393508;28;20084;-80
2022/12/07 00:13:55;;;;;;;58.10;32.40;;;;;;;2.69;91.33;100348.59;10401221;28;20022;-81
2022/12/07 00:18:58;;;;;;;59.92;30.15;;;;;;;3.14;89.68;100345.47;10384397;28;20065;-81
2022/12/07 00:24:02;;;;;;;62.00;30.90;;;;;;;2.80;91.60;100338.34;10352640;28;20053;-81
2022/12/07 00:29:10;;;;;;;69.93;32.60;;;;;;;3.05;90.90;100337.97;10372132;28;20042;-80
2022/12/07 00:34:16;;;;;;;73.85;35.20;;;;;;;2.97;91.97;100341.00;10377433;28;20065;-77
2022/12/07 00:39:18;;;;;;;73.47;36.53;;;;;;;3.02;92.12;100339.00;10388472;28;20045;-82
2022/12/07 00:44:23;;;;;;;82.70;36.53;;;;;;;3.26;90.42;100336.00;10390674;28;20046;-83
2022/12/07 00:49:26;;;;;;;67.85;35.08;;;;;;;3.04;91.35;100320.31;10387861;28;20081;-84
2022/12/07 00:54:29;;;;;;;63.38;29.48;;;;;;;2.92;91.04;100324.47;10364493;28;20077;-81
2022/12/07 00:59:33;;;;;;;60.13;30.30;;;;;;;3.25;90.31;100316.56;10351883;28;20526;-81
2022/12/07 01:04:36;;;;;;;71.15;31.63;;;;;;;3.40;88.93;100316.69;10353508;28;20052;-83
2022/12/07 01:09:39;;;;;;;65.28;31.80;;;;;;;3.24;89.05;100319.31;10391558;28;20046;-78
2022/12/07 01:14:43;;;;;;;63.78;31.45;;;;;;;3.24;89.44;100328.13;10388523;28;20046;-81
2022/12/07 01:19:46;;;;;;;52.28;24.92;;;;;;;3.27;88.84;100319.16;10375074;28;20048;-79
2022/12/07 01:24:49;;;;;;;45.03;23.77;;;;;;;3.04;89.67;100321.19;10384765;28;20052;-84
2022/12/07 01:29:53;;;;;;;44.75;20.95;;;;;;;2.80;89.41;100314.47;10391008;28;20041;-80
2022/12/07 01:34:56;;;;;;;50.17;25.88;;;;;;;2.95;89.51;100329.59;10374473;28;20050;-83
2022/12/07 01:39:59;;;;;;;47.78;24.80;;;;;;;2.94;88.80;100327.03;10394746;28;20069;-83
2022/12/07 01:45:38;;;;;;;43.33;23.00;;;;;;;2.53;90.66;100325.50;10395513;28;20057;-81
2022/12/07 01:50:43;;;;;;;44.42;22.58;;;;;;;2.71;90.31;100331.69;10399973;28;20054;-79
2022/12/07 01:55:51;;;;;;;49.92;24.08;;;;;;;2.97;88.48;100325.09;10405769;28;20046;-78
2022/12/07 02:00:53;;;;;;;43.78;22.10;;;;;;;2.52;89.73;100321.06;10402264;28;20042;-82
2022/12/07 02:05:59;;;;;;;39.10;21.08;;;;;;;2.76;88.86;100320.84;10386065;28;20064;-82
2022/12/07 02:11:03;;;;;;;42.35;23.02;;;;;;;2.75;87.71;100314.69;10395628;28;20407;-82
2022/12/07 02:16:19;;;;;;;44.40;22.05;;;;;;;2.57;88.57;100312.94;10381000;28;20050;-82
2022/12/07 02:21:33;;;;;;;39.65;22.23;;;;;;;2.45;89.00;100310.88;10380505;28;20061;-83
2022/12/07 02:27:08;;;;;;;38.28;21.05;;;;;;;2.35;89.64;100313.09;10371751;28;20050;-82
2022/12/07 02:32:19;;;;;;;41.65;21.13;;;;;;;2.25;90.17;100315.34;10396167;28;20057;-79
2022/12/07 02:37:33;;;;;;;39.58;20.50;;;;;;;2.42;89.45;100313.66;10395624;28;20054;-82
2022/12/07 02:42:41;;;;;;;30.50;14.95;;;;;;;2.12;89.77;100312.38;10395336;28;20038;-83
2022/12/07 02:47:49;;;;;;;40.22;18.77;;;;;;;2.31;89.27;100306.22;10361390;28;20053;-78
2022/12/07 02:52:52;;;;;;;37.83;17.05;;;;;;;2.00;90.41;100293.53;10400593;28;20065;-79
2022/12/07 02:58:07;;;;;;;32.70;16.00;;;;;;;2.16;89.32;100297.19;10405716;28;20041;-82
2022/12/07 03:03:14;;;;;;;35.60;17.08;;;;;;;2.21;88.84;100299.63;10393244;28;20050;-81
2022/12/07 03:08:30;;;;;;;32.20;16.38;;;;;;;2.14;89.27;100293.78;10384466;28;20042;-80
2022/12/07 03:13:42;;;;;;;35.45;16.15;;;;;;;1.89;89.89;100296.69;10415377;28;20050;-80
2022/12/07 03:18:50;;;;;;;35.83;13.77;;;;;;;1.97;89.61;100288.41;10402443;28;20053;-80
2022/12/07 03:23:57;;;;;;;29.75;13.30;;;;;;;1.83;90.05;100286.38;10405344;28;20056;-80
2022/12/07 03:29:06;;;;;;;26.17;14.45;;;;;;;1.80;91.21;100286.53;10381286;28;20068;-82
2022/12/07 03:34:15;;;;;;;31.35;14.55;;;;;;;2.11;89.11;100283.31;10480042;23;20079;-78
2022/12/07 03:39:25;;;;;;;30.17;14.02;;;;;;;1.69;90.06;100271.13;10502740;28;20079;-78
2022/12/07 03:44:28;;;;;;;30.80;14.70;;;;;;;1.89;89.19;100276.38;10504533;28;20131;-79
2022/12/07 03:49:42;;;;;;;30.92;13.68;;;;;;;1.93;89.09;100271.78;10496254;28;20068;-79
2022/12/07 03:54:52;;;;;;;35.58;14.85;;;;;;;1.90;89.25;100291.34;10505254;28;20100;-78
2022/12/07 03:59:56;;;;;;;27.45;13.63;;;;;;;1.94;89.25;100279.66;10502138;28;20087;-79
2022/12/07 04:05:00;;;;;;;28.88;15.13;;;;;;;1.69;90.62;100279.09;10505192;28;20044;-79
2022/12/07 04:10:04;;;;;;;26.67;13.65;;;;;;;1.94;89.28;100277.00;10505196;28;20054;-78
2022/12/07 04:15:09;;;;;;;38.72;16.15;;;;;;;1.90;89.00;100280.75;10504239;28;20132;-79
2022/12/07 04:20:14;;;;;;;26.00;14.13;;;;;;;1.87;88.85;100274.75;10504791;28;20044;-79
2022/12/07 04:25:16;;;;;;;26.35;13.77;;;;;;;1.90;89.45;100274.59;10512045;28;20078;-77
2022/12/07 04:30:19;;;;;;;30.88;14.48;;;;;;;1.79;89.83;100276.88;10503335;28;20049;-77
2022/12/07 04:35:23;;;;;;;20.90;10.70;;;;;;;1.68;90.48;100287.97;10501474;28;20052;-77
2022/12/07 04:40:26;;;;;;;28.20;14.82;;;;;;;1.83;89.76;100287.25;10494016;28;20041;-79
2022/12/07 04:45:29;;;;;;;28.83;13.98;;;;;;;2.08;88.03;100279.00;10494544;28;20048;-79
2022/12/07 04:50:33;;;;;;;23.80;12.15;;;;;;;1.87;89.61;100283.53;10497131;28;20044;-77
2022/12/07 04:55:37;;;;;;;24.63;13.15;;;;;;;2.12;88.24;100279.75;10499108;28;20174;-77
2022/12/07 05:00:40;;;;;;;22.98;11.25;;;;;;;2.00;88.41;100280.31;10499686;28;20107;-79
2022/12/07 05:05:44;;;;;;;23.17;11.05;;;;;;;2.06;87.52;100286.19;10504955;28;20041;-76
2022/12/07 05:10:49;;;;;;;26.13;12.80;;;;;;;2.11;87.34;100285.94;10499710;28;20449;-76
2022/12/07 05:15:52;;;;;;;26.10;12.20;;;;;;;2.08;87.14;100289.59;10501046;28;20049;-77
2022/12/07 05:20:56;;;;;;;23.70;10.93;;;;;;;1.83;88.24;100294.34;10499946;28;20045;-77
2022/12/07 05:25:59;;;;;;;23.05;9.50;;;;;;;1.79;88.43;100293.63;10500129;28;20044;-77
2022/12/07 05:31:01;;;;;;;21.48;9.30;;;;;;;1.79;88.03;100293.63;10513097;28;20059;-76
2022/12/07 05:36:07;;;;;;;26.27;11.10;;;;;;;2.09;87.17;100287.84;10530856;28;20048;-77
2022/12/07 05:42:11;;;;;;;22.05;9.55;;;;;;;1.71;88.05;100283.38;10507519;28;20102;-79
2022/12/07 05:46:36;;;;;;;25.55;11.85;;;;;;;2.08;87.10;100272.84;10502805;28;20088;-78
2022/12/07 05:51:40;;;;;;;20.42;8.88;;;;;;;1.93;87.23;100271.78;10504830;28;20044;-79
2022/12/07 05:56:43;;;;;;;23.15;10.63;;;;;;;2.09;87.51;100279.88;10507082;28;20450;-79
2022/12/07 06:01:46;;;;;;;19.10;9.80;;;;;;;1.93;87.18;100277.09;10503956;28;20477;-79
2022/12/07 06:06:50;;;;;;;21.73;9.60;;;;;;;1.59;89.58;100276.00;10493709;28;20424;-79
2022/12/07 06:17:15;;;;;;;24.88;11.25;;;;;;;1.56;88.22;100275.28;10499104;28;20052;-79
2022/12/07 06:22:19;;;;;;;23.50;11.20;;;;;;;1.57;87.39;100275.22;10504407;28;20098;-77
2022/12/07 06:27:21;;;;;;;20.42;10.05;;;;;;;1.45;87.84;100276.63;10500341;28;20055;-77
2022/12/07 06:32:24;;;;;;;24.58;10.35;;;;;;;1.44;88.94;100268.75;10500345;28;20075;-77
2022/12/07 06:37:29;;;;;;;18.52;10.43;;;;;;;1.43;88.85;100281.13;10502138;28;20056;-76
2022/12/07 06:42:31;;;;;;;25.05;10.40;;;;;;;1.50;88.00;100279.06;10495201;28;20119;-76
2022/12/07 06:47:34;;;;;;;16.42;9.60;;;;;;;1.47;87.69;100271.25;10497176;28;20125;-77
2022/12/07 06:52:51;;;;;;;20.52;9.43;;;;;;;1.55;88.26;100287.66;10498238;28;20049;-77
2022/12/07 06:57:54;;;;;;;18.95;10.07;;;;;;;1.26;89.66;100292.47;10497059;28;20106;-77
2022/12/07 07:02:57;;;;;;;27.35;10.80;;;;;;;1.66;87.48;100290.66;10495096;28;20036;-77
2022/12/07 07:08:01;;;;;;;21.02;10.30;;;;;;;1.59;86.82;100293.66;10493273;28;20049;-77
2022/12/07 07:13:24;;;;;;;16.48;8.98;;;;;;;1.27;87.60;100301.28;10502026;28;20049;-79
2022/12/07 07:18:27;;;;;;;26.65;11.95;;;;;;;1.61;86.59;100303.25;10511602;28;20094;-78
2022/12/07 07:23:32;;;;;;;20.33;10.82;;;;;;;1.39;87.79;100305.16;10505798;28;20444;-79
2022/12/07 07:28:35;;;;;;;20.40;9.80;;;;;;;1.37;87.09;100305.25;10500554;28;20132;-76
2022/12/07 07:33:37;;;;;;;20.40;10.35;;;;;;;1.49;86.21;100309.97;10503429;28;20048;-76
2022/12/07 07:38:41;;;;;;;24.33;12.63;;;;;;;1.42;86.54;100313.81;10499733;28;20083;-78
2022/12/07 07:43:44;;;;;;;23.48;10.18;;;;;;;1.09;88.05;100308.19;10495232;28;20620;-77
2022/12/07 07:48:47;;;;;;;28.45;10.65;;;;;;;1.48;86.62;100317.97;10507359;28;20025;-77
2022/12/07 07:53:51;;;;;;;18.88;8.65;;;;;;;1.27;87.01;100318.00;10525816;28;20032;-78
2022/12/07 07:58:54;;;;;;;18.25;8.05;;;;;;;1.39;86.49;100321.88;10511143;28;20049;-79
2022/12/07 08:03:57;;;;;;;18.10;8.05;;;;;;;1.46;85.78;100325.13;10503410;28;20576;-79
2022/12/07 08:09:01;;;;;;;12.25;6.22;;;;;;;1.17;85.57;100329.91;10499725;28;20036;-77
2022/12/07 08:14:04;;;;;;;18.40;8.68;;;;;;;1.31;86.65;100317.84;10494690;28;20068;-77
2022/12/07 08:19:07;;;;;;;20.50;9.63;;;;;;;1.60;85.94;100324.53;10495042;28;20051;-77
2022/12/07 08:24:11;;;;;;;17.25;7.53;;;;;;;1.79;85.67;100322.75;10497812;28;20062;-79
2022/12/07 08:29:14;;;;;;;20.60;9.73;;;;;;;2.52;84.20;100309.63;10503754;28;20136;-78
2022/12/07 08:34:17;;;;;;;13.38;7.43;;;;;;;2.55;82.00;100323.63;10511736;28;20083;-78
2022/12/07 08:39:21;;;;;;;18.88;6.57;;;;;;;2.10;83.86;100324.84;10513083;28;20059;-79
2022/12/07 08:44:33;;;;;;;12.15;6.85;;;;;;;2.34;83.25;100314.88;10503486;28;20080;-78
2022/12/07 08:49:40;;;;;;;9.82;4.82;;;;;;;1.81;84.94;100312.97;10503697;28;20060;-77
2022/12/07 08:54:45;;;;;;;22.02;7.35;;;;;;;2.22;85.22;100311.94;10502701;28;20044;-78
2022/12/07 08:59:48;;;;;;;15.30;6.82;;;;;;;2.20;83.72;100313.84;10503868;28;20068;-79
2022/12/07 09:04:51;;;;;;;10.75;5.80;;;;;;;3.48;81.07;100301.22;10504707;28;20043;-78
2022/12/07 09:09:55;;;;;;;11.68;4.82;;;;;;;3.57;78.72;100316.69;10504819;28;20060;-79
2022/12/07 09:15:00;;;;;;;14.65;5.40;;;;;;;3.12;79.84;100315.47;10503118;28;20071;-78
2022/12/07 09:20:05;;;;;;;16.00;6.25;;;;;;;2.71;81.74;100326.38;10504212;28;20521;-79
2022/12/07 09:25:10;;;;;;;12.77;6.50;;;;;;;2.85;83.64;100331.00;10510979;28;20075;-79
2022/12/07 09:30:13;;;;;;;13.13;5.32;;;;;;;2.50;83.76;100316.81;10496237;28;20090;-77
2022/12/07 09:35:16;;;;;;;14.13;5.68;;;;;;;2.56;83.32;100325.34;10500976;28;20040;-77
2022/12/07 09:40:22;;;;;;;11.45;6.40;;;;;;;2.54;83.08;100326.34;10499102;28;20049;-77
2022/12/07 09:45:31;;;;;;;10.38;4.25;;;;;;;2.23;83.26;100329.59;10507421;28;20036;-78
2022/12/07 09:50:34;;;;;;;10.10;4.78;;;;;;;2.57;83.29;100318.25;10494241;28;20036;-78
2022/12/07 09:55:41;;;;;;;11.65;4.60;;;;;;;3.20;81.49;100321.25;10509394;28;20144;-78
2022/12/07 10:00:44;;;;;;;13.25;4.53;;;;;;;2.56;81.93;100320.03;10508828;28;20086;-78
2022/12/07 10:05:51;;;;;;;7.65;3.85;;;;;;;2.89;81.85;100321.09;10515889;28;20113;-78
2022/12/07 10:10:57;;;;;;;12.30;5.00;;;;;;;2.35;83.96;100321.88;10506272;28;20048;-78
2022/12/07 10:16:00;;;;;;;14.45;5.75;;;;;;;2.60;83.09;100312.78;10506246;28;20083;-78
2022/12/07 10:21:16;;;;;;;10.02;3.95;;;;;;;2.51;83.56;100297.28;10506969;28;20473;-78
2022/12/07 10:26:29;;;;;;;7.90;4.55;;;;;;;2.27;83.85;100302.84;10507790;28;20054;-78
2022/12/07 10:31:32;;;;;;;9.60;4.60;;;;;;;3.08;82.69;100300.66;10506704;28;20033;-78
2022/12/07 10:36:38;;;;;;;15.98;5.35;;;;;;;3.22;81.39;100294.63;10515564;28;20044;-78
2022/12/07 10:41:56;;;;;;;12.88;4.35;;;;;;;3.16;81.65;100292.31;10519484;28;20072;-79
2022/12/07 10:47:16;;;;;;;7.40;3.53;;;;;;;3.43;80.89;100288.22;10521040;28;20052;-78
2022/12/07 10:52:30;;;;;;;8.95;3.47;;;;;;;3.09;81.35;100283.78;10518430;28;20123;-78
2022/12/07 10:57:49;;;;;;;4.63;2.88;;;;;;;2.84;81.05;100284.19;10518540;28;20071;-76
2022/12/07 11:03:08;;;;;;;8.50;3.55;;;;;;;3.08;81.07;100275.91;10518798;28;20064;-77
2022/12/07 11:08:22;;;;;;;15.40;5.00;;;;;;;3.36;80.94;100270.03;10506648;28;20056;-78
2022/12/07 11:13:35;;;;;;;11.40;4.22;;;;;;;3.53;79.57;100275.28;10518995;28;20051;-78
2022/12/07 11:18:50;;;;;;;8.25;3.70;;;;;;;3.33;79.65;100259.56;10515025;28;20056;-78
2022/12/07 11:24:02;;;;;;;13.38;3.83;;;;;;;3.65;78.85;100269.31;10505825;28;20048;-79
2022/12/07 11:29:34;;;;;;;15.93;3.83;;;;;;;3.53;79.44;100262.00;10524428;28;20052;-79
2022/12/07 11:34:48;;;;;;;8.40;3.23;;;;;;;3.79;78.55;100257.94;10529511;28;20048;-77
2022/12/07 11:39:53;;;;;;;9.13;3.17;;;;;;;3.52;78.44;100249.69;10514358;28;20123;-77
2022/12/07 11:45:02;;;;;;;7.80;3.47;;;;;;;3.24;79.32;100243.19;10517713;28;20056;-77
2022/12/07 11:50:27;;;;;;;9.32;2.30;;;;;;;3.13;78.51;100244.69;10511339;28;20512;-77
2022/12/07 11:55:40;;;;;;;4.93;2.47;;;;;;;3.87;77.60;100233.63;10508135;28;20052;-77
2022/12/07 12:00:45;;;;;;;5.13;2.10;;;;;;;3.04;79.25;100230.09;10508728;28;20428;-77
2022/12/07 12:05:49;;;;;;;7.82;2.22;;;;;;;3.25;78.87;100228.09;10511209;28;20036;-77
2022/12/07 12:10:58;;;;;;;2.83;1.63;;;;;;;3.19;77.47;100223.13;10510097;28;20070;-77
2022/12/07 12:16:22;;;;;;;8.13;2.70;;;;;;;4.89;74.65;100221.50;10513696;28;20057;-77
2022/12/07 12:21:29;;;;;;;6.70;1.90;;;;;;;5.28;70.65;100212.06;10497985;28;20091;-77
2022/12/07 12:26:34;;;;;;;5.13;2.22;;;;;;;5.47;70.46;100209.97;10519632;28;20075;-77
2022/12/07 12:31:41;;;;;;;9.80;2.17;;;;;;;6.46;67.86;100206.31;10508241;28;20057;-77
2022/12/07 12:36:46;;;;;;;8.10;1.90;;;;;;;6.62;65.58;100196.31;10500710;28;20056;-77
2022/12/07 12:42:06;;;;;;;5.68;1.83;;;;;;;6.02;67.88;100200.25;10496399;28;20051;-77
2022/12/07 12:47:42;;;;;;;7.43;2.03;;;;;;;5.46;68.95;100194.94;10502324;28;20045;-78
2022/12/07 12:52:55;;;;;;;5.10;1.60;;;;;;;4.77;70.34;100196.50;10505407;28;20044;-79
2022/12/07 12:58:31;;;;;;;7.00;1.67;;;;;;;4.47;72.09;100198.28;10503697;28;20075;-78
2022/12/07 13:03:34;;;;;;;4.47;1.50;;;;;;;4.38;72.18;100195.19;10503229;28;20041;-78
2022/12/07 13:08:42;;;;;;;7.18;1.92;;;;;;;4.06;72.94;100188.22;10505500;28;20104;-78
2022/12/07 13:13:45;;;;;;;9.68;2.40;;;;;;;3.99;73.96;100193.03;10497166;28;20108;-78
2022/12/07 13:18:48;;;;;;;7.60;1.75;;;;;;;3.75;74.57;100195.28;10512270;28;20116;-78
2022/12/07 13:24:00;;;;;;;9.63;2.10;;;;;;;4.27;72.58;100181.69;10512323;28;20033;-78
2022/12/07 13:29:11;;;;;;;7.60;2.10;;;;;;;4.25;72.70;100183.59;10509949;28;20044;-78
2022/12/07 13:34:39;;;;;;;6.93;1.45;;;;;;;4.12;72.77;100175.47;10508612;28;20048;-78
2022/12/07 13:39:49;;;;;;;7.28;1.73;;;;;;;4.37;72.01;100169.56;10493706;28;20170;-78
2022/12/07 13:44:51;;;;;;;10.43;2.15;;;;;;;4.58;71.61;100167.47;10509494;28;20046;-78
2022/12/07 13:49:56;;;;;;;9.48;1.67;;;;;;;4.43;71.93;100156.88;10507736;28;20094;-78
2022/12/07 13:55:02;;;;;;;11.23;2.15;;;;;;;4.49;72.39;100167.13;10507226;28;20409;-78
2022/12/07 14:00:14;;;;;;;7.75;2.20;;;;;;;3.92;74.01;100167.75;10505720;28;20079;-77
2022/12/07 14:05:25;;;;;;;10.93;2.43;;;;;;;4.10;74.15;100163.19;10505301;28;20139;-78
2022/12/07 14:10:31;;;;;;;5.45;1.83;;;;;;;4.09;73.11;100169.47;10504803;28;20279;-77
2022/12/07 14:15:35;;;;;;;6.63;1.90;;;;;;;3.72;74.49;100151.13;10510542;28;20123;-77
2022/12/07 14:20:40;;;;;;;9.77;2.42;;;;;;;3.81;74.12;100149.75;10507213;28;20052;-77
2022/12/07 14:25:48;;;;;;;8.48;3.50;;;;;;;3.67;74.13;100141.72;10499493;28;20071;-78
2022/12/07 14:30:53;;;;;;;6.93;1.90;;;;;;;3.59;74.27;100141.28;10499576;28;20048;-78
2022/12/07 14:35:57;;;;;;;13.45;3.00;;;;;;;3.77;74.19;100144.72;10500684;28;20052;-78
2022/12/07 14:46:19;;;;;;;7.10;2.00;;;;;;;2.96;76.46;100142.94;10498972;28;20090;-77
2022/12/07 14:51:21;;;;;;;7.90;2.25;;;;;;;3.04;76.63;100145.16;10498786;28;20051;-78
2022/12/07 14:56:49;;;;;;;;;;;;;;;3.30;75.36;100137.59;10498673;28;20497;-78
2022/12/07 15:01:51;;;;;;;11.52;2.03;;;;;;;3.38;74.73;100130.94;10494980;28;20014;-78
2022/12/07 15:06:57;;;;;;;11.20;2.47;;;;;;;3.50;74.47;100132.03;10498078;28;20495;-78
2022/12/07 15:12:02;;;;;;;10.55;2.78;;;;;;;3.41;74.36;100137.88;10497908;28;20131;-78
2022/12/07 15:17:06;;;;;;;8.07;1.98;;;;;;;3.38;75.00;100138.91;10494756;28;20041;-78
2022/12/07 15:22:12;;;;;;;11.85;2.30;;;;;;;3.07;75.59;100131.72;10495425;28;20037;-78
2022/12/07 15:27:16;;;;;;;10.00;2.50;;;;;;;3.28;75.72;100133.22;10496109;28;20139;-77
2022/12/07 15:32:22;;;;;;;13.25;1.92;;;;;;;3.30;75.59;100132.28;10505930;23;20052;-78
2022/12/07 15:37:26;;;;;;;9.50;1.95;;;;;;;3.18;75.50;100126.72;10445623;28;20030;-79
2022/12/07 15:42:34;;;;;;;6.50;2.30;;;;;;;3.37;75.79;100123.88;10461605;28;20038;-78
2022/12/07 15:47:43;;;;;;;8.35;2.55;;;;;;;2.82;78.17;100137.47;10452962;28;20040;-80
2022/12/07 15:53:13;;;;;;;12.57;3.00;;;;;;;3.02;79.19;100126.69;10439042;28;20045;-79
2022/12/07 15:58:18;;;;;;;16.77;2.67;;;;;;;2.50;81.68;100132.03;10426348;28;20100;-80
2022/12/07 16:03:31;;;;;;;6.10;2.13;;;;;;;2.13;83.74;100133.91;10449321;28;20391;-79
2022/12/07 16:08:52;;;;;;;5.18;1.02;;;;;;;2.22;83.10;100137.88;10457417;28;20045;-80
2022/12/07 16:13:59;;;;;;;4.70;0.40;;;;;;;1.58;84.13;100131.31;10458904;28;20057;-80
2022/12/07 16:19:07;;;;;;;3.75;0.80;;;;;;;1.28;85.31;100126.50;10424158;28;20052;-80
2022/12/07 16:24:14;;;;;;;4.72;0.98;;;;;;;1.39;84.28;100114.56;10419840;28;20048;-80
2022/12/07 16:29:20;;;;;;;1.65;0.63;;;;;;;1.63;84.43;100124.00;10419310;28;20045;-82
2022/12/07 16:34:23;;;;;;;3.38;1.10;;;;;;;1.52;83.96;100115.72;10413871;28;20084;-81
2022/12/07 16:39:26;;;;;;;6.85;1.30;;;;;;;1.33;84.77;100110.44;10435406;28;20038;-81
2022/12/07 16:44:31;;;;;;;4.72;1.50;;;;;;;1.33;84.54;100107.78;10406358;28;20061;-80
2022/12/07 16:49:34;;;;;;;3.83;1.67;;;;;;;1.39;84.49;100104.84;10429992;28;20120;-80
2022/12/07 16:54:37;;;;;;;5.30;1.35;;;;;;;1.53;83.83;100100.69;10442839;28;20045;-81
2022/12/07 16:59:41;;;;;;;4.03;1.20;;;;;;;1.47;83.75;100097.41;10442192;28;20056;-80
2022/12/07 17:04:44;;;;;;;7.47;1.73;;;;;;;1.44;83.87;100097.53;10428028;28;20065;-81
2022/12/07 17:09:47;;;;;;;7.75;1.95;;;;;;;1.54;84.10;100089.16;10461717;28;20045;-80
2022/12/07 17:20:12;;;;;;;3.65;2.78;;;;;;;1.66;83.65;100080.63;10426584;28;20056;-81
2022/12/07 17:25:15;;;;;;;6.80;3.53;;;;;;;1.68;83.87;100066.38;10441542;28;20091;-80
2022/12/07 17:30:20;;;;;;;8.80;3.58;;;;;;;1.74;83.78;100059.94;10425281;28;20057;-81
2022/12/07 17:35:23;;;;;;;9.52;3.75;;;;;;;1.66;83.83;100070.88;10419081;28;20041;-80
2022/12/07 17:40:26;;;;;;;7.40;3.90;;;;;;;1.55;84.45;100062.63;10444416;28;20060;-80
2022/12/07 17:45:30;;;;;;;8.68;3.90;;;;;;;1.57;84.69;100067.84;10444443;28;20052;-79
2022/12/07 17:55:54;;;;;;;6.18;3.92;;;;;;;1.54;85.98;100068.84;10439862;28;20064;-80
2022/12/07 18:01:18;;;;;;;13.50;4.55;;;;;;;1.79;86.21;100057.06;10438093;28;20136;-82
2022/12/07 18:06:26;;;;;;;13.32;5.85;;;;;;;1.77;86.77;100051.81;10411597;28;20091;-81
2022/12/07 18:11:29;;;;;;;14.70;5.00;;;;;;;1.68;86.86;100055.78;10439819;28;20054;-80
2022/12/07 18:16:34;;;;;;;11.93;5.28;;;;;;;1.78;87.09;100045.59;10442792;28;20077;-79
2022/12/07 18:21:37;;;;;;;14.35;6.15;;;;;;;1.64;87.69;100043.63;10441531;28;20051;-80
2022/12/07 18:26:41;;;;;;;8.98;4.85;;;;;;;1.58;88.25;100043.94;10455036;28;20046;-80
2022/12/07 18:31:46;;;;;;;3.78;1.92;;;;;;;1.57;86.94;100039.56;10411571;28;20045;-80
2022/12/07 18:36:50;;;;;;;10.07;3.80;;;;;;;1.60;87.36;100033.28;10434141;28;20053;-79
2022/12/07 18:41:53;;;;;;;4.15;2.75;;;;;;;1.79;86.10;100041.16;10433102;28;20518;-79
2022/12/07 18:46:57;;;;;;;9.18;3.65;;;;;;;1.79;85.81;100034.06;10437125;28;20042;-79
2022/12/07 18:52:00;;;;;;;5.32;3.28;;;;;;;1.70;85.75;100038.03;10436153;28;20049;-81
2022/12/07 18:57:02;;;;;;;7.55;3.58;;;;;;;1.70;85.26;100034.50;10459802;28;20045;-80
2022/12/07 19:02:07;;;;;;;7.82;5.07;;;;;;;1.86;85.69;100029.31;10445372;28;20060;-80
2022/12/07 19:07:10;;;;;;;10.70;4.05;;;;;;;1.61;85.57;100019.94;10465000;28;20049;-81
2022/12/07 19:12:13;;;;;;;8.07;5.28;;;;;;;1.94;84.77;100025.34;10442862;28;20714;-80
2022/12/07 19:17:18;;;;;;;12.75;5.07;;;;;;;2.18;83.84;100022.38;10430672;28;20044;-79
2022/12/07 19:22:22;;;;;;;14.50;5.28;;;;;;;2.00;84.69;100010.91;10429272;28;20052;-79
2022/12/07 19:27:26;;;;;;;9.80;5.25;;;;;;;2.04;84.82;100015.13;10415454;28;20046;-79
2022/12/07 19:32:30;;;;;;;16.85;5.82;;;;;;;2.03;84.88;100009.91;10424265;28;20052;-79
2022/12/07 19:37:33;;;;;;;15.77;6.82;;;;;;;1.90;84.93;100002.59;10424725;28;20111;-78
2022/12/07 19:42:35;;;;;;;10.43;6.93;;;;;;;2.05;84.81;100006.25;10405906;28;20125;-79
2022/12/07 19:47:40;;;;;;;13.23;7.68;;;;;;;2.02;84.78;100001.09;10428050;28;20049;-79
2022/12/07 19:52:42;;;;;;;19.02;9.77;;;;;;;2.08;85.48;99992.81;10417517;28;20041;-79
2022/12/07 19:57:45;;;;;;;13.55;9.88;;;;;;;1.97;85.68;99984.59;10430822;28;20356;-79
2022/12/07 20:02:52;;;;;;;23.52;11.65;;;;;;;2.04;86.20;99979.84;10407900;28;20053;-79
2022/12/07 20:07:55;;;;;;;19.67;11.50;;;;;;;2.01;86.37;99977.34;10427390;28;20095;-79
2022/12/07 20:18:19;;;;;;;26.15;13.45;;;;;;;2.26;85.38;99959.22;10418177;28;20111;-80
2022/12/07 20:23:23;;;;;;;21.05;12.48;;;;;;;2.21;85.66;99947.16;10423615;28;20053;-80
2022/12/07 20:28:25;;;;;;;23.02;12.23;;;;;;;2.06;85.91;99951.47;10427223;28;20045;-80
2022/12/07 20:33:30;;;;;;;25.17;12.65;;;;;;;2.07;85.75;99948.72;10427383;28;20034;-80
2022/12/07 20:38:33;;;;;;;27.75;14.77;;;;;;;2.20;86.08;99948.09;10446829;28;20029;-80
2022/12/07 20:43:36;;;;;;;25.25;13.95;;;;;;;2.39;85.36;99931.13;10447356;28;20049;-80
2022/12/07 20:48:40;;;;;;;24.40;13.38;;;;;;;2.04;86.61;99929.50;10435001;28;20111;-80
2022/12/07 20:53:43;;;;;;;16.38;11.13;;;;;;;2.13;86.26;99926.34;10421739;28;20080;-79
2022/12/07 20:58:46;;;;;;;22.15;12.75;;;;;;;2.12;86.30;99932.59;10429691;28;20045;-78
2022/12/07 21:03:50;;;;;;;24.85;11.70;;;;;;;2.01;86.03;99917.28;10415500;28;20095;-79
2022/12/07 21:08:54;;;;;;;16.30;11.60;;;;;;;1.81;87.17;99922.75;10417269;28;20049;-80
2022/12/07 21:13:58;;;;;;;21.90;14.02;;;;;;;2.10;85.94;99921.22;10433079;28;20049;-80
2022/12/07 21:19:02;;;;;;;23.35;13.55;;;;;;;1.99;85.77;99916.50;10413921;28;20053;-80
2022/12/07 21:24:07;;;;;;;25.13;10.95;;;;;;;1.75;86.74;99915.13;10435115;28;20037;-80
2022/12/07 21:29:09;;;;;;;20.45;12.77;;;;;;;1.80;86.74;99907.81;10417769;28;20095;-80
2022/12/07 21:34:14;;;;;;;25.08;12.15;;;;;;;1.75;86.50;99910.69;10444070;28;20095;-79
2022/12/07 21:39:16;;;;;;;19.50;11.60;;;;;;;1.77;86.46;99906.16;10448366;28;20033;-80
2022/12/07 21:44:19;;;;;;;27.73;15.40;;;;;;;1.83;86.42;99903.19;10438813;28;20143;-78
2022/12/07 21:49:23;;;;;;;25.90;13.00;;;;;;;1.89;86.47;99909.97;10429908;28;20037;-79
2022/12/07 21:54:26;;;;;;;22.10;11.95;;;;;;;1.64;87.00;99900.63;10436704;28;20029;-79
2022/12/07 21:59:29;;;;;;;27.48;15.43;;;;;;;1.95;85.86;99897.25;10439188;28;20069;-79
2022/12/07 22:04:37;;;;;;;23.90;14.70;;;;;;;1.77;86.39;99902.66;10418501;28;20065;-77
2022/12/07 22:09:40;;;;;;;19.95;11.10;;;;;;;1.59;85.95;99893.88;10405993;28;20057;-79
2022/12/07 22:20:08;;;;;;;22.55;11.48;;;;;;;1.55;85.88;99898.47;10469630;28;20049;-79
2022/12/07 22:25:11;;;;;;;21.08;12.18;;;;;;;1.82;85.60;99888.25;10461460;28;20040;-78
2022/12/07 22:30:15;;;;;;;25.63;15.18;;;;;;;2.01;85.11;99882.84;10466801;28;20053;-78
2022/12/07 22:35:19;;;;;;;23.80;9.57;;;;;;;1.77;85.60;99887.63;10436282;28;20042;-78
2022/12/07 22:40:22;;;;;;;20.60;13.07;;;;;;;1.83;85.80;99882.00;10408923;28;20041;-78
2022/12/07 22:45:25;;;;;;;22.75;13.98;;;;;;;1.94;85.03;99878.78;10394400;28;20045;-78
2022/12/07 22:50:29;;;;;;;19.85;12.45;;;;;;;2.09;84.55;99859.44;10442237;28;20048;-79
2022/12/07 22:55:32;;;;;;;18.75;12.32;;;;;;;1.88;85.10;99863.22;10416136;28;20088;-79
2022/12/07 23:00:34;;;;;;;26.60;12.85;;;;;;;1.98;84.27;99859.16;10431269;28;20065;-79
2022/12/07 23:05:42;;;;;;;18.02;8.40;;;;;;;1.64;85.97;99858.28;10419894;28;20053;-79
2022/12/07 23:10:47;;;;;;;26.75;14.10;;;;;;;1.73;85.69;99859.63;10431125;28;20048;-79
2022/12/07 23:15:50;;;;;;;23.35;13.50;;;;;;;1.75;85.12;99852.41;10410848;28;20359;-80
2022/12/07 23:20:57;;;;;;;24.52;13.23;;;;;;;1.62;85.54;99843.41;10430490;28;20065;-79
2022/12/07 23:26:03;;;;;;;24.05;15.80;;;;;;;1.68;84.15;99838.66;10430823;28;20456;-79
2022/12/07 23:31:08;;;;;;;21.23;13.05;;;;;;;1.57;85.34;99829.59;10432309;28;20057;-79
2022/12/07 23:36:15;;;;;;;14.25;9.48;;;;;;;1.56;84.71;99825.22;10423302;28;20047;-78
2022/12/07 23:41:21;;;;;;;26.20;15.30;;;;;;;1.86;83.86;99823.56;10430356;28;20125;-79
2022/12/07 23:46:26;;;;;;;20.52;13.27;;;;;;;1.59;84.60;99807.38;10415909;28;20045;-79
2022/12/07 23:51:31;;;;;;;19.95;11.43;;;;;;;1.61;84.81;99802.84;10433940;28;20041;-79
2022/12/07 23:56:34;;;;;;;31.13;16.05;;;;;;;1.37;85.90;99793.53;10433378;28;20048;-79
